Cdry Blue — ICOB — position and weather

sailwx.info

Track history (hours):
 
Tides and Currents Weather Stations Pressure Air Temp Water Temp Dewpoint Dewpoint Depression Visibility Wind Speed Wind Dir Waves Ship Positions

Cdry Blue

Last reported at 2017-Aug-24 07:02 UTC. Time now 2017-Aug-24 10:19 UTC.
Position N 40°32' E 018°19'.

Length 108 m; draft 7.1 m.

Type: Cargo ship. MMSI: 247289300.

Date/timePositionNaut miles runAvg speedWind from/ knotsBaromVisibWave heightAir tempDewpointWater temp
2017-Aug-24 07:02N 40°32' E 018°19'2 9.9
2017-Aug-24 06:49N 40°30' E 018°21'3 9.7
2017-Aug-24 06:30N 40°27' E 018°23'6 9.8
2017-Aug-24 05:56N 40°23' E 018°27'5 9.9
2017-Aug-24 05:27N 40°19' E 018°30'5 9.9
2017-Aug-24 04:58N 40°14' E 018°32'5 9.8
2017-Aug-24 04:30N 40°10' E 018°34'10 9.3
2017-Aug-24 03:28N 40°00' E 018°32'610.0
2017-Aug-24 02:55N 39°55' E 018°30'4 9.9
2017-Aug-24 02:30N 39°51' E 018°28'6 9.9
2017-Aug-24 01:53N 39°46' E 018°25'410.8
2017-Aug-24 01:30N 39°45' E 018°20'611.3
2017-Aug-24 01:01N 39°45' E 018°12'510.9
2017-Aug-24 00:30N 39°48' E 018°06'510.8
2017-Aug-24 00:00N 39°52' E 018°01'510.6
2017-Aug-23 23:30N 39°55' E 017°55'510.8
2017-Aug-23 23:01N 39°58' E 017°50'611.4
2017-Aug-23 22:30N 40°02' E 017°44'611.2
2017-Aug-23 22:00N 40°05' E 017°39'511.0
2017-Aug-23 21:31N 40°09' E 017°33'510.9
2017-Aug-23 21:00N 40°12' E 017°27'510.5
2017-Aug-23 20:30N 40°16' E 017°22'510.5
2017-Aug-23 20:00N 40°19' E 017°17'510.7
2017-Aug-23 19:31N 40°22' E 017°11'510.2
2017-Aug-23 19:00N 40°26' E 017°06'4 8.0
2017-Aug-23 18:30N 40°30' E 017°08'1 2.6
2017-Aug-23 18:00N 40°30' E 017°10'0 0.0
2017-Aug-23 17:30N 40°30' E 017°10'0 0.0
2017-Aug-23 17:00N 40°30' E 017°10'0 0.0
2017-Aug-23 16:30N 40°30' E 017°10'0 0.0
2017-Aug-23 16:00N 40°30' E 017°10'0 0.0
2017-Aug-23 15:30N 40°30' E 017°10'0 0.0
2017-Aug-23 15:00N 40°30' E 017°10'0 0.0
2017-Aug-23 14:30N 40°30' E 017°10'0 0.0
2017-Aug-23 13:30N 40°30' E 017°10'0 0.0
2017-Aug-23 13:00N 40°30' E 017°10'0 0.0
2017-Aug-23 12:30N 40°30' E 017°10'0 0.0
2017-Aug-23 12:00N 40°30' E 017°10'0 0.0
2017-Aug-23 11:30N 40°30' E 017°10'0 0.0
2017-Aug-23 11:00N 40°30' E 017°10'0 0.0
2017-Aug-23 10:30N 40°30' E 017°10'0 0.0
2017-Aug-23 10:00N 40°30' E 017°10'0 0.0
2017-Aug-23 09:30N 40°30' E 017°10'0 0.0
2017-Aug-23 08:57N 40°30' E 017°10'0 0.0
2017-Aug-23 08:30N 40°30' E 017°10'0 0.0
2017-Aug-23 07:57N 40°30' E 017°10'0 0.0
2017-Aug-23 07:30N 40°30' E 017°10'0 0.0
2017-Aug-23 07:00N 40°30' E 017°10'0 0.0
2017-Aug-23 06:30N 40°30' E 017°10'0 0.0
2017-Aug-23 06:00N 40°30' E 017°10'0 0.0
2017-Aug-23 05:30N 40°30' E 017°10'0 0.0
2017-Aug-23 05:00N 40°30' E 017°10'0 0.0
2017-Aug-23 04:30N 40°30' E 017°10'0 0.0
2017-Aug-23 04:00N 40°30' E 017°10'0 0.0
2017-Aug-23 03:30N 40°30' E 017°10'0 0.0
2017-Aug-23 03:00N 40°30' E 017°10'0 0.0
2017-Aug-23 02:30N 40°30' E 017°10'0 0.0
2017-Aug-23 01:57N 40°30' E 017°10'0 0.0
2017-Aug-23 01:30N 40°30' E 017°10'0 0.0
2017-Aug-23 01:00N 40°30' E 017°10'0 0.0
2017-Aug-23 00:30N 40°30' E 017°10'0 0.0
2017-Aug-23 00:00N 40°30' E 017°10'0 0.0
2017-Aug-22 23:30N 40°30' E 017°10'0 0.0
2017-Aug-22 23:00N 40°30' E 017°10'0 0.0
2017-Aug-22 22:30N 40°30' E 017°10'0 0.0
2017-Aug-22 21:57N 40°30' E 017°10'0 0.0
2017-Aug-22 21:30N 40°30' E 017°10'0 0.0
2017-Aug-22 21:00N 40°30' E 017°10'0 0.0
2017-Aug-22 20:30N 40°30' E 017°10'0 0.0
2017-Aug-22 19:57N 40°30' E 017°10'0 0.0
2017-Aug-22 19:30N 40°30' E 017°10'0 0.0
2017-Aug-22 19:00N 40°30' E 017°10'0 0.0
2017-Aug-22 18:30N 40°30' E 017°10'0 0.0
2017-Aug-22 17:54N 40°30' E 017°10'0 0.0
2017-Aug-22 17:30N 40°30' E 017°10'0 0.0
2017-Aug-22 17:00N 40°30' E 017°10'0 0.0
2017-Aug-22 16:30N 40°30' E 017°10'0 0.0
2017-Aug-22 16:00N 40°30' E 017°10'0 0.0
2017-Aug-22 15:30N 40°30' E 017°10'0 0.0
2017-Aug-22 14:54N 40°30' E 017°10'0 0.0
2017-Aug-22 14:27N 40°30' E 017°10'0 0.0
2017-Aug-22 14:00N 40°30' E 017°10'0 0.0
2017-Aug-22 13:30N 40°30' E 017°10'0 0.0
2017-Aug-22 13:00N 40°30' E 017°10'0 0.0
2017-Aug-22 12:30N 40°30' E 017°10'0 0.0
2017-Aug-22 12:00N 40°30' E 017°10'0 0.0
2017-Aug-22 11:30N 40°30' E 017°10'0 0.0
2017-Aug-22 11:00N 40°30' E 017°10'0 0.0
2017-Aug-22 10:30N 40°30' E 017°10'0 0.0
2017-Aug-22 10:00N 40°30' E 017°10'0 0.0
2017-Aug-22 09:30N 40°30' E 017°10'0 0.0
2017-Aug-22 09:00N 40°30' E 017°10'0 0.0
2017-Aug-22 08:30N 40°30' E 017°10'0 0.0
2017-Aug-22 08:00N 40°30' E 017°10'0 0.0
2017-Aug-22 07:30N 40°30' E 017°10'0 0.0
2017-Aug-22 07:00N 40°30' E 017°10'0 0.0
2017-Aug-22 06:30N 40°30' E 017°10'0 0.0
2017-Aug-22 06:00N 40°30' E 017°10'0 0.0
2017-Aug-22 05:30N 40°30' E 017°10'0 0.0
2017-Aug-22 04:57N 40°30' E 017°10'0 0.0
2017-Aug-22 04:30N 40°30' E 017°10'0 0.0
2017-Aug-22 04:00N 40°30' E 017°10'0 0.0
2017-Aug-22 03:30N 40°30' E 017°10'0 0.0
2017-Aug-22 03:00N 40°30' E 017°10'0 0.0
2017-Aug-22 02:30N 40°30' E 017°10'0 0.0
2017-Aug-22 02:00N 40°30' E 017°10'0 0.0
2017-Aug-22 01:30N 40°30' E 017°10'0 0.0
2017-Aug-22 01:00N 40°30' E 017°10'0 0.0
2017-Aug-22 00:30N 40°30' E 017°10'0 0.0
2017-Aug-22 00:00N 40°30' E 017°10'0 0.0
2017-Aug-21 23:30N 40°30' E 017°10'0 0.0
2017-Aug-21 22:57N 40°30' E 017°10'0 0.0
2017-Aug-21 22:30N 40°30' E 017°10'0 0.0
2017-Aug-21 22:00N 40°30' E 017°10'0 0.0
2017-Aug-21 21:30N 40°30' E 017°10'0 0.0
2017-Aug-21 21:00N 40°30' E 017°10'0 0.0
2017-Aug-21 20:30N 40°30' E 017°10'0 0.0
2017-Aug-21 20:00N 40°30' E 017°10'0 0.0
2017-Aug-21 19:30N 40°30' E 017°10'0 0.0
2017-Aug-21 19:00N 40°30' E 017°10'0 0.0
2017-Aug-21 18:27N 40°30' E 017°10'0 0.0
2017-Aug-21 17:54N 40°30' E 017°10'0 0.0
2017-Aug-21 17:18N 40°30' E 017°10'0 0.0
2017-Aug-21 17:00N 40°30' E 017°10'0 0.0
2017-Aug-21 16:30N 40°30' E 017°10'0 0.0
2017-Aug-21 16:00N 40°30' E 017°10'0 0.0
2017-Aug-21 15:30N 40°30' E 017°10'0 0.0
2017-Aug-21 15:00N 40°30' E 017°10'0 0.0
2017-Aug-21 14:30N 40°30' E 017°10'0 0.0
2017-Aug-21 14:00N 40°30' E 017°10'0 0.0
2017-Aug-21 13:30N 40°30' E 017°10'0 0.0
2017-Aug-21 13:00N 40°30' E 017°10'0 0.0
2017-Aug-21 12:30N 40°30' E 017°10'0 0.0
2017-Aug-21 12:00N 40°30' E 017°10'0 0.0
2017-Aug-21 11:30N 40°30' E 017°10'0 0.0
2017-Aug-21 11:00N 40°30' E 017°10'0 0.0
2017-Aug-21 10:30N 40°30' E 017°10'0 0.0
2017-Aug-21 10:00N 40°30' E 017°10'0 0.0
2017-Aug-21 09:30N 40°30' E 017°10'0 0.0
2017-Aug-21 09:00N 40°30' E 017°10'0 0.0
2017-Aug-21 08:27N 40°30' E 017°10'0 0.0
2017-Aug-21 08:00N 40°30' E 017°10'0 0.0
2017-Aug-21 07:30N 40°30' E 017°10'0 0.0
2017-Aug-21 07:00N 40°30' E 017°10'0 0.0
2017-Aug-21 06:30N 40°30' E 017°10'0 0.0
2017-Aug-21 06:00N 40°30' E 017°10'0 0.0
2017-Aug-21 05:30N 40°30' E 017°10'0 0.0
2017-Aug-21 05:00N 40°30' E 017°10'0 0.0
2017-Aug-21 04:30N 40°30' E 017°10'0 0.0
2017-Aug-21 04:00N 40°30' E 017°10'0 0.0
2017-Aug-21 03:30N 40°30' E 017°10'0 0.0
2017-Aug-21 03:00N 40°30' E 017°10'0 0.0
2017-Aug-21 02:30N 40°30' E 017°10'0 0.0
2017-Aug-21 02:00N 40°30' E 017°10'0 0.0
2017-Aug-21 01:30N 40°30' E 017°10'0 0.0
2017-Aug-21 01:00N 40°30' E 017°10'0 0.0
2017-Aug-21 00:30N 40°30' E 017°10'0 0.0
2017-Aug-21 00:00N 40°30' E 017°10'0 0.0
2017-Aug-20 23:30N 40°30' E 017°10'0 0.0
2017-Aug-20 23:00N 40°30' E 017°10'0 0.0
2017-Aug-20 22:30N 40°30' E 017°10'0 0.0
2017-Aug-20 22:00N 40°30' E 017°10'0 0.0
2017-Aug-20 21:30N 40°30' E 017°10'0 0.0
2017-Aug-20 21:00N 40°30' E 017°10'0 0.0
2017-Aug-20 20:30N 40°30' E 017°10'0 0.0
2017-Aug-20 20:00N 40°30' E 017°10'0 0.0
2017-Aug-20 19:30N 40°30' E 017°10'0 0.0
2017-Aug-20 19:00N 40°30' E 017°10'0 0.0
2017-Aug-20 18:30N 40°30' E 017°10'0 0.0
2017-Aug-20 18:00N 40°30' E 017°10'0 0.0
2017-Aug-20 17:30N 40°30' E 017°10'0 0.0
2017-Aug-20 17:00N 40°30' E 017°10'0 0.0
2017-Aug-20 16:30N 40°30' E 017°10'0 0.0
2017-Aug-20 16:00N 40°30' E 017°10'0 0.0
2017-Aug-20 15:30N 40°30' E 017°10'0 0.0
2017-Aug-20 15:00N 40°30' E 017°10'0 0.0
2017-Aug-20 14:30N 40°30' E 017°10'0 0.0
2017-Aug-20 14:00N 40°30' E 017°10'0 0.0
2017-Aug-20 13:30N 40°30' E 017°10'0 0.0
2017-Aug-20 13:00N 40°30' E 017°10'0 0.0
2017-Aug-20 12:30N 40°30' E 017°10'0 0.0
2017-Aug-20 12:00N 40°30' E 017°10'0 0.0
2017-Aug-20 11:30N 40°30' E 017°10'0 0.0
2017-Aug-20 11:00N 40°30' E 017°10'0 0.0
2017-Aug-20 10:30N 40°30' E 017°10'0 0.0
2017-Aug-20 10:00N 40°30' E 017°10'0 0.0
2017-Aug-20 09:30N 40°30' E 017°10'0 0.0
2017-Aug-20 09:00N 40°30' E 017°10'0 0.0
2017-Aug-20 08:30N 40°30' E 017°10'0 0.0
2017-Aug-20 08:00N 40°30' E 017°10'0 0.0
2017-Aug-20 07:30N 40°30' E 017°10'0 0.0
2017-Aug-20 07:00N 40°30' E 017°10'0 0.0
2017-Aug-20 06:30N 40°30' E 017°10'0 0.1
2017-Aug-20 06:01N 40°30' E 017°10'2 4.0
2017-Aug-20 05:30N 40°29' E 017°08'5 9.4
2017-Aug-20 05:00N 40°24' E 017°09'3 5.6
2017-Aug-20 04:30N 40°22' E 017°11'511.0
2017-Aug-20 04:01N 40°18' E 017°16'611.2
2017-Aug-20 03:31N 40°14' E 017°22'510.9
2017-Aug-20 03:01N 40°09' E 017°25'3 5.7
2017-Aug-20 02:31N 40°10' E 017°29'4 7.3
2017-Aug-20 02:01N 40°08' E 017°34'611.3
2017-Aug-20 01:31N 40°05' E 017°40'611.1
2017-Aug-20 01:00N 40°01' E 017°45'510.9
2017-Aug-20 00:31N 39°58' E 017°51'510.8
2017-Aug-20 00:00N 39°54' E 017°56'611.2
2017-Aug-19 23:30N 39°51' E 018°02'510.9
2017-Aug-19 23:01N 39°47' E 018°07'510.4
2017-Aug-19 22:30N 39°44' E 018°13'510.6
2017-Aug-19 22:00N 39°42' E 018°19'611.9
2017-Aug-19 21:31N 39°38' E 018°25'611.8
2017-Aug-19 21:00N 39°35' E 018°31'611.9
2017-Aug-19 20:30N 39°31' E 018°37'611.9
2017-Aug-19 20:00N 39°28' E 018°44'612.1
2017-Aug-19 19:30N 39°25' E 018°50'612.3
2017-Aug-19 19:00N 39°21' E 018°57'612.3
2017-Aug-19 18:31N 39°18' E 019°03'612.0
2017-Aug-19 18:00N 39°14' E 019°10'611.9
2017-Aug-19 17:30N 39°11' E 019°16'611.9
2017-Aug-19 17:00N 39°07' E 019°22'612.2
2017-Aug-19 16:30N 39°04' E 019°29'612.2
2017-Aug-19 16:00N 39°01' E 019°35'612.1
2017-Aug-19 15:30N 38°57' E 019°42'612.3
2017-Aug-19 15:00N 38°54' E 019°48'1212.1
2017-Aug-19 14:00N 38°46' E 020°01'611.8
2017-Aug-19 13:31N 38°43' E 020°07'611.8
2017-Aug-19 13:00N 38°40' E 020°14'612.0
2017-Aug-19 12:30N 38°37' E 020°20'712.3
2017-Aug-19 11:57N 38°34' E 020°28'  
2017-Aug-17 05:26N 37°59' E 019°59'510.6
2017-Aug-17 05:01N 37°59' E 019°54'510.5
2017-Aug-17 04:30N 37°59' E 019°47'510.5
2017-Aug-17 04:00N 37°58' E 019°40'810.6
2017-Aug-17 03:16N 37°58' E 019°30'310.9
2017-Aug-17 03:01N 37°58' E 019°27'510.8
2017-Aug-17 02:30N 37°57' E 019°20'611.0
2017-Aug-17 02:00N 37°57' E 019°13'711.2
2017-Aug-17 01:22N 37°57' E 019°04'411.2
2017-Aug-17 01:00N 37°57' E 018°59'14111.3
2017-Aug-16 12:32N 37°52' E 015°59'110.4
2017-Aug-16 12:30N 37°52' E 015°59'510.3
2017-Aug-16 12:00N 37°53' E 015°52'5 9.9
2017-Aug-16 11:30N 37°53' E 015°46'5 9.9
2017-Aug-16 11:00N 37°53' E 015°40'510.3
2017-Aug-16 10:30N 37°57' E 015°36'510.6
2017-Aug-16 10:00N 38°02' E 015°34'611.8
2017-Aug-16 09:30N 38°08' E 015°35'611.6
2017-Aug-16 09:01N 38°14' E 015°36'4 8.9
2017-Aug-16 08:30N 38°18' E 015°39'611.2
2017-Aug-16 08:01N 38°21' E 015°33'611.5
2017-Aug-16 07:31N 38°20' E 015°26'611.6
2017-Aug-16 07:00N 38°20' E 015°19'611.3
2017-Aug-16 06:30N 38°20' E 015°12'611.2
2017-Aug-16 06:00N 38°19' E 015°04'611.0
2017-Aug-16 05:31N 38°19' E 014°57'611.0
2017-Aug-16 05:00N 38°19' E 014°50'611.2
2017-Aug-16 04:30N 38°19' E 014°43'611.4
2017-Aug-16 04:00N 38°18' E 014°36'611.3
2017-Aug-16 03:30N 38°18' E 014°29'611.4
2017-Aug-16 02:59N 38°18' E 014°21'611.4
2017-Aug-16 02:28N 38°18' E 014°14'511.4
2017-Aug-16 02:00N 38°18' E 014°07'511.2
2017-Aug-16 01:30N 38°18' E 013°60'611.3
2017-Aug-16 01:00N 38°18' E 013°53'611.3
2017-Aug-16 00:30N 38°18' E 013°46'611.3
2017-Aug-16 00:00N 38°18' E 013°38'611.5
2017-Aug-15 23:30N 38°18' E 013°31'611.2
2017-Aug-15 23:00N 38°18' E 013°24'510.8
2017-Aug-15 22:30N 38°18' E 013°17'510.7
2017-Aug-15 22:00N 38°17' E 013°10'510.5
2017-Aug-15 21:30N 38°17' E 013°04'510.4
2017-Aug-15 21:00N 38°16' E 012°57'510.3
2017-Aug-15 20:30N 38°16' E 012°50'9510.4
2017-Aug-15 11:27N 38°13' E 010°50'511.2
2017-Aug-15 11:00N 38°12' E 010°44'1511.1
2017-Aug-15 09:40N 38°12' E 010°25'211.3
2017-Aug-15 09:30N 38°12' E 010°22'611.4
2017-Aug-15 09:00N 38°12' E 010°15'611.3
2017-Aug-15 08:30N 38°12' E 010°08'911.3
2017-Aug-15 07:40N 38°11' E 009°56'211.2
2017-Aug-15 07:30N 38°11' E 009°54'611.1
2017-Aug-15 07:00N 38°11' E 009°47'611.0
2017-Aug-15 06:30N 38°10' E 009°40'510.9
2017-Aug-15 06:00N 38°10' E 009°33'610.8
2017-Aug-15 05:28N 38°10' E 009°25'510.8
2017-Aug-15 04:59N 38°10' E 009°19'4710.7
2017-Aug-15 00:37N 38°08' E 008°20'210.3
2017-Aug-15 00:23N 38°08' E 008°17'2610.1
2017-Aug-14 21:46N 38°05' E 007°43'4 9.9
2017-Aug-14 21:23N 38°04' E 007°38'7 9.9
2017-Aug-14 20:40N 38°03' E 007°30'210.0
2017-Aug-14 20:30N 38°03' E 007°28'5 9.9
2017-Aug-14 19:58N 38°02' E 007°21'20 9.9
2017-Aug-14 17:54N 37°58' E 006°55'5910.4
2017-Aug-14 12:14N 37°48' E 005°42'210.5
2017-Aug-14 12:00N 37°48' E 005°39'1610.4
2017-Aug-14 10:25N 37°45' E 005°18'510.3
2017-Aug-14 09:55N 37°44' E 005°12'410.2
2017-Aug-14 09:30N 37°44' E 005°06'610.4
2017-Aug-14 08:54N 37°43' E 004°59'710.3
2017-Aug-14 08:14N 37°41' E 004°50'510.3
2017-Aug-14 07:44N 37°40' E 004°44'610.4
2017-Aug-14 07:10N 37°39' E 004°36'  
Track history (hours):
 
Tides and Currents Weather Stations Pressure Air Temp Water Temp Dewpoint Dewpoint Depression Visibility Wind Speed Wind Dir Waves Ship Positions

Cdry Blue

Last reported at 2017-Aug-24 07:02 UTC. Time now 2017-Aug-24 10:19 UTC.
Position N 40°32' E 018°19'.

Length 108 m; draft 7.1 m.

Type: Cargo ship. MMSI: 247289300.

Date/timePositionNaut miles runAvg speedWind from/ knotsBaromVisibWave heightAir tempDewpointWater temp
2017-Aug-24 07:02N 40°32' E 018°19'2 9.9
2017-Aug-24 06:49N 40°30' E 018°21'3 9.7
2017-Aug-24 06:30N 40°27' E 018°23'6 9.8
2017-Aug-24 05:56N 40°23' E 018°27'5 9.9
2017-Aug-24 05:27N 40°19' E 018°30'5 9.9
2017-Aug-24 04:58N 40°14' E 018°32'5 9.8
2017-Aug-24 04:30N 40°10' E 018°34'10 9.3
2017-Aug-24 03:28N 40°00' E 018°32'610.0
2017-Aug-24 02:55N 39°55' E 018°30'4 9.9
2017-Aug-24 02:30N 39°51' E 018°28'6 9.9
2017-Aug-24 01:53N 39°46' E 018°25'410.8
2017-Aug-24 01:30N 39°45' E 018°20'611.3
2017-Aug-24 01:01N 39°45' E 018°12'510.9
2017-Aug-24 00:30N 39°48' E 018°06'510.8
2017-Aug-24 00:00N 39°52' E 018°01'510.6
2017-Aug-23 23:30N 39°55' E 017°55'510.8
2017-Aug-23 23:01N 39°58' E 017°50'611.4
2017-Aug-23 22:30N 40°02' E 017°44'611.2
2017-Aug-23 22:00N 40°05' E 017°39'511.0
2017-Aug-23 21:31N 40°09' E 017°33'510.9
2017-Aug-23 21:00N 40°12' E 017°27'510.5
2017-Aug-23 20:30N 40°16' E 017°22'510.5
2017-Aug-23 20:00N 40°19' E 017°17'510.7
2017-Aug-23 19:31N 40°22' E 017°11'510.2
2017-Aug-23 19:00N 40°26' E 017°06'4 8.0
2017-Aug-23 18:30N 40°30' E 017°08'1 2.6
2017-Aug-23 18:00N 40°30' E 017°10'0 0.0
2017-Aug-23 17:30N 40°30' E 017°10'0 0.0
2017-Aug-23 17:00N 40°30' E 017°10'0 0.0
2017-Aug-23 16:30N 40°30' E 017°10'0 0.0
2017-Aug-23 16:00N 40°30' E 017°10'0 0.0
2017-Aug-23 15:30N 40°30' E 017°10'0 0.0
2017-Aug-23 15:00N 40°30' E 017°10'0 0.0
2017-Aug-23 14:30N 40°30' E 017°10'0 0.0
2017-Aug-23 13:30N 40°30' E 017°10'0 0.0
2017-Aug-23 13:00N 40°30' E 017°10'0 0.0
2017-Aug-23 12:30N 40°30' E 017°10'0 0.0
2017-Aug-23 12:00N 40°30' E 017°10'0 0.0
2017-Aug-23 11:30N 40°30' E 017°10'0 0.0
2017-Aug-23 11:00N 40°30' E 017°10'0 0.0
2017-Aug-23 10:30N 40°30' E 017°10'0 0.0
2017-Aug-23 10:00N 40°30' E 017°10'0 0.0
2017-Aug-23 09:30N 40°30' E 017°10'0 0.0
2017-Aug-23 08:57N 40°30' E 017°10'0 0.0
2017-Aug-23 08:30N 40°30' E 017°10'0 0.0
2017-Aug-23 07:57N 40°30' E 017°10'0 0.0
2017-Aug-23 07:30N 40°30' E 017°10'0 0.0
2017-Aug-23 07:00N 40°30' E 017°10'0 0.0
2017-Aug-23 06:30N 40°30' E 017°10'0 0.0
2017-Aug-23 06:00N 40°30' E 017°10'0 0.0
2017-Aug-23 05:30N 40°30' E 017°10'0 0.0
2017-Aug-23 05:00N 40°30' E 017°10'0 0.0
2017-Aug-23 04:30N 40°30' E 017°10'0 0.0
2017-Aug-23 04:00N 40°30' E 017°10'0 0.0
2017-Aug-23 03:30N 40°30' E 017°10'0 0.0
2017-Aug-23 03:00N 40°30' E 017°10'0 0.0
2017-Aug-23 02:30N 40°30' E 017°10'0 0.0
2017-Aug-23 01:57N 40°30' E 017°10'0 0.0
2017-Aug-23 01:30N 40°30' E 017°10'0 0.0
2017-Aug-23 01:00N 40°30' E 017°10'0 0.0
2017-Aug-23 00:30N 40°30' E 017°10'0 0.0
2017-Aug-23 00:00N 40°30' E 017°10'0 0.0
2017-Aug-22 23:30N 40°30' E 017°10'0 0.0
2017-Aug-22 23:00N 40°30' E 017°10'0 0.0
2017-Aug-22 22:30N 40°30' E 017°10'0 0.0
2017-Aug-22 21:57N 40°30' E 017°10'0 0.0
2017-Aug-22 21:30N 40°30' E 017°10'0 0.0
2017-Aug-22 21:00N 40°30' E 017°10'0 0.0
2017-Aug-22 20:30N 40°30' E 017°10'0 0.0
2017-Aug-22 19:57N 40°30' E 017°10'0 0.0
2017-Aug-22 19:30N 40°30' E 017°10'0 0.0
2017-Aug-22 19:00N 40°30' E 017°10'0 0.0
2017-Aug-22 18:30N 40°30' E 017°10'0 0.0
2017-Aug-22 17:54N 40°30' E 017°10'0 0.0
2017-Aug-22 17:30N 40°30' E 017°10'0 0.0
2017-Aug-22 17:00N 40°30' E 017°10'0 0.0
2017-Aug-22 16:30N 40°30' E 017°10'0 0.0
2017-Aug-22 16:00N 40°30' E 017°10'0 0.0
2017-Aug-22 15:30N 40°30' E 017°10'0 0.0
2017-Aug-22 14:54N 40°30' E 017°10'0 0.0
2017-Aug-22 14:27N 40°30' E 017°10'0 0.0
2017-Aug-22 14:00N 40°30' E 017°10'0 0.0
2017-Aug-22 13:30N 40°30' E 017°10'0 0.0
2017-Aug-22 13:00N 40°30' E 017°10'0 0.0
2017-Aug-22 12:30N 40°30' E 017°10'0 0.0
2017-Aug-22 12:00N 40°30' E 017°10'0 0.0
2017-Aug-22 11:30N 40°30' E 017°10'0 0.0
2017-Aug-22 11:00N 40°30' E 017°10'0 0.0
2017-Aug-22 10:30N 40°30' E 017°10'0 0.0
2017-Aug-22 10:00N 40°30' E 017°10'0 0.0
2017-Aug-22 09:30N 40°30' E 017°10'0 0.0
2017-Aug-22 09:00N 40°30' E 017°10'0 0.0
2017-Aug-22 08:30N 40°30' E 017°10'0 0.0
2017-Aug-22 08:00N 40°30' E 017°10'0 0.0
2017-Aug-22 07:30N 40°30' E 017°10'0 0.0
2017-Aug-22 07:00N 40°30' E 017°10'0 0.0
2017-Aug-22 06:30N 40°30' E 017°10'0 0.0
2017-Aug-22 06:00N 40°30' E 017°10'0 0.0
2017-Aug-22 05:30N 40°30' E 017°10'0 0.0
2017-Aug-22 04:57N 40°30' E 017°10'0 0.0
2017-Aug-22 04:30N 40°30' E 017°10'0 0.0
2017-Aug-22 04:00N 40°30' E 017°10'0 0.0
2017-Aug-22 03:30N 40°30' E 017°10'0 0.0
2017-Aug-22 03:00N 40°30' E 017°10'0 0.0
2017-Aug-22 02:30N 40°30' E 017°10'0 0.0
2017-Aug-22 02:00N 40°30' E 017°10'0 0.0
2017-Aug-22 01:30N 40°30' E 017°10'0 0.0
2017-Aug-22 01:00N 40°30' E 017°10'0 0.0
2017-Aug-22 00:30N 40°30' E 017°10'0 0.0
2017-Aug-22 00:00N 40°30' E 017°10'0 0.0
2017-Aug-21 23:30N 40°30' E 017°10'0 0.0
2017-Aug-21 22:57N 40°30' E 017°10'0 0.0
2017-Aug-21 22:30N 40°30' E 017°10'0 0.0
2017-Aug-21 22:00N 40°30' E 017°10'0 0.0
2017-Aug-21 21:30N 40°30' E 017°10'0 0.0
2017-Aug-21 21:00N 40°30' E 017°10'0 0.0
2017-Aug-21 20:30N 40°30' E 017°10'0 0.0
2017-Aug-21 20:00N 40°30' E 017°10'0 0.0
2017-Aug-21 19:30N 40°30' E 017°10'0 0.0
2017-Aug-21 19:00N 40°30' E 017°10'0 0.0
2017-Aug-21 18:27N 40°30' E 017°10'0 0.0
2017-Aug-21 17:54N 40°30' E 017°10'0 0.0
2017-Aug-21 17:18N 40°30' E 017°10'0 0.0
2017-Aug-21 17:00N 40°30' E 017°10'0 0.0
2017-Aug-21 16:30N 40°30' E 017°10'0 0.0
2017-Aug-21 16:00N 40°30' E 017°10'0 0.0
2017-Aug-21 15:30N 40°30' E 017°10'0 0.0
2017-Aug-21 15:00N 40°30' E 017°10'0 0.0
2017-Aug-21 14:30N 40°30' E 017°10'0 0.0
2017-Aug-21 14:00N 40°30' E 017°10'0 0.0
2017-Aug-21 13:30N 40°30' E 017°10'0 0.0
2017-Aug-21 13:00N 40°30' E 017°10'0 0.0
2017-Aug-21 12:30N 40°30' E 017°10'0 0.0
2017-Aug-21 12:00N 40°30' E 017°10'0 0.0
2017-Aug-21 11:30N 40°30' E 017°10'0 0.0
2017-Aug-21 11:00N 40°30' E 017°10'0 0.0
2017-Aug-21 10:30N 40°30' E 017°10'0 0.0
2017-Aug-21 10:00N 40°30' E 017°10'0 0.0
2017-Aug-21 09:30N 40°30' E 017°10'0 0.0
2017-Aug-21 09:00N 40°30' E 017°10'0 0.0
2017-Aug-21 08:27N 40°30' E 017°10'0 0.0
2017-Aug-21 08:00N 40°30' E 017°10'0 0.0
2017-Aug-21 07:30N 40°30' E 017°10'0 0.0
2017-Aug-21 07:00N 40°30' E 017°10'0 0.0
2017-Aug-21 06:30N 40°30' E 017°10'0 0.0
2017-Aug-21 06:00N 40°30' E 017°10'0 0.0
2017-Aug-21 05:30N 40°30' E 017°10'0 0.0
2017-Aug-21 05:00N 40°30' E 017°10'0 0.0
2017-Aug-21 04:30N 40°30' E 017°10'0 0.0
2017-Aug-21 04:00N 40°30' E 017°10'0 0.0
2017-Aug-21 03:30N 40°30' E 017°10'0 0.0
2017-Aug-21 03:00N 40°30' E 017°10'0 0.0
2017-Aug-21 02:30N 40°30' E 017°10'0 0.0
2017-Aug-21 02:00N 40°30' E 017°10'0 0.0
2017-Aug-21 01:30N 40°30' E 017°10'0 0.0
2017-Aug-21 01:00N 40°30' E 017°10'0 0.0
2017-Aug-21 00:30N 40°30' E 017°10'0 0.0
2017-Aug-21 00:00N 40°30' E 017°10'0 0.0
2017-Aug-20 23:30N 40°30' E 017°10'0 0.0
2017-Aug-20 23:00N 40°30' E 017°10'0 0.0
2017-Aug-20 22:30N 40°30' E 017°10'0 0.0
2017-Aug-20 22:00N 40°30' E 017°10'0 0.0
2017-Aug-20 21:30N 40°30' E 017°10'0 0.0
2017-Aug-20 21:00N 40°30' E 017°10'0 0.0
2017-Aug-20 20:30N 40°30' E 017°10'0 0.0
2017-Aug-20 20:00N 40°30' E 017°10'0 0.0
2017-Aug-20 19:30N 40°30' E 017°10'0 0.0
2017-Aug-20 19:00N 40°30' E 017°10'0 0.0
2017-Aug-20 18:30N 40°30' E 017°10'0 0.0
2017-Aug-20 18:00N 40°30' E 017°10'0 0.0
2017-Aug-20 17:30N 40°30' E 017°10'0 0.0
2017-Aug-20 17:00N 40°30' E 017°10'0 0.0
2017-Aug-20 16:30N 40°30' E 017°10'0 0.0
2017-Aug-20 16:00N 40°30' E 017°10'0 0.0
2017-Aug-20 15:30N 40°30' E 017°10'0 0.0
2017-Aug-20 15:00N 40°30' E 017°10'0 0.0
2017-Aug-20 14:30N 40°30' E 017°10'0 0.0
2017-Aug-20 14:00N 40°30' E 017°10'0 0.0
2017-Aug-20 13:30N 40°30' E 017°10'0 0.0
2017-Aug-20 13:00N 40°30' E 017°10'0 0.0
2017-Aug-20 12:30N 40°30' E 017°10'0 0.0
2017-Aug-20 12:00N 40°30' E 017°10'0 0.0
2017-Aug-20 11:30N 40°30' E 017°10'0 0.0
2017-Aug-20 11:00N 40°30' E 017°10'0 0.0
2017-Aug-20 10:30N 40°30' E 017°10'0 0.0
2017-Aug-20 10:00N 40°30' E 017°10'0 0.0
2017-Aug-20 09:30N 40°30' E 017°10'0 0.0
2017-Aug-20 09:00N 40°30' E 017°10'0 0.0
2017-Aug-20 08:30N 40°30' E 017°10'0 0.0
2017-Aug-20 08:00N 40°30' E 017°10'0 0.0
2017-Aug-20 07:30N 40°30' E 017°10'0 0.0
2017-Aug-20 07:00N 40°30' E 017°10'0 0.0
2017-Aug-20 06:30N 40°30' E 017°10'0 0.1
2017-Aug-20 06:01N 40°30' E 017°10'2 4.0
2017-Aug-20 05:30N 40°29' E 017°08'5 9.4
2017-Aug-20 05:00N 40°24' E 017°09'3 5.6
2017-Aug-20 04:30N 40°22' E 017°11'511.0
2017-Aug-20 04:01N 40°18' E 017°16'611.2
2017-Aug-20 03:31N 40°14' E 017°22'510.9
2017-Aug-20 03:01N 40°09' E 017°25'3 5.7
2017-Aug-20 02:31N 40°10' E 017°29'4 7.3
2017-Aug-20 02:01N 40°08' E 017°34'611.3
2017-Aug-20 01:31N 40°05' E 017°40'611.1
2017-Aug-20 01:00N 40°01' E 017°45'510.9
2017-Aug-20 00:31N 39°58' E 017°51'510.8
2017-Aug-20 00:00N 39°54' E 017°56'611.2
2017-Aug-19 23:30N 39°51' E 018°02'510.9
2017-Aug-19 23:01N 39°47' E 018°07'510.4
2017-Aug-19 22:30N 39°44' E 018°13'510.6
2017-Aug-19 22:00N 39°42' E 018°19'611.9
2017-Aug-19 21:31N 39°38' E 018°25'611.8
2017-Aug-19 21:00N 39°35' E 018°31'611.9
2017-Aug-19 20:30N 39°31' E 018°37'611.9
2017-Aug-19 20:00N 39°28' E 018°44'612.1
2017-Aug-19 19:30N 39°25' E 018°50'612.3
2017-Aug-19 19:00N 39°21' E 018°57'612.3
2017-Aug-19 18:31N 39°18' E 019°03'612.0
2017-Aug-19 18:00N 39°14' E 019°10'611.9
2017-Aug-19 17:30N 39°11' E 019°16'611.9
2017-Aug-19 17:00N 39°07' E 019°22'612.2
2017-Aug-19 16:30N 39°04' E 019°29'612.2
2017-Aug-19 16:00N 39°01' E 019°35'612.1
2017-Aug-19 15:30N 38°57' E 019°42'612.3
2017-Aug-19 15:00N 38°54' E 019°48'1212.1
2017-Aug-19 14:00N 38°46' E 020°01'611.8
2017-Aug-19 13:31N 38°43' E 020°07'611.8
2017-Aug-19 13:00N 38°40' E 020°14'612.0
2017-Aug-19 12:30N 38°37' E 020°20'712.3
2017-Aug-19 11:57N 38°34' E 020°28'  
2017-Aug-17 05:26N 37°59' E 019°59'510.6
2017-Aug-17 05:01N 37°59' E 019°54'510.5
2017-Aug-17 04:30N 37°59' E 019°47'510.5
2017-Aug-17 04:00N 37°58' E 019°40'810.6
2017-Aug-17 03:16N 37°58' E 019°30'310.9
2017-Aug-17 03:01N 37°58' E 019°27'510.8
2017-Aug-17 02:30N 37°57' E 019°20'611.0
2017-Aug-17 02:00N 37°57' E 019°13'711.2
2017-Aug-17 01:22N 37°57' E 019°04'411.2
2017-Aug-17 01:00N 37°57' E 018°59'14111.3
2017-Aug-16 12:32N 37°52' E 015°59'110.4
2017-Aug-16 12:30N 37°52' E 015°59'510.3
2017-Aug-16 12:00N 37°53' E 015°52'5 9.9
2017-Aug-16 11:30N 37°53' E 015°46'5 9.9
2017-Aug-16 11:00N 37°53' E 015°40'510.3
2017-Aug-16 10:30N 37°57' E 015°36'510.6
2017-Aug-16 10:00N 38°02' E 015°34'611.8
2017-Aug-16 09:30N 38°08' E 015°35'611.6
2017-Aug-16 09:01N 38°14' E 015°36'4 8.9
2017-Aug-16 08:30N 38°18' E 015°39'611.2
2017-Aug-16 08:01N 38°21' E 015°33'611.5
2017-Aug-16 07:31N 38°20' E 015°26'611.6
2017-Aug-16 07:00N 38°20' E 015°19'611.3
2017-Aug-16 06:30N 38°20' E 015°12'611.2
2017-Aug-16 06:00N 38°19' E 015°04'611.0
2017-Aug-16 05:31N 38°19' E 014°57'611.0
2017-Aug-16 05:00N 38°19' E 014°50'611.2
2017-Aug-16 04:30N 38°19' E 014°43'611.4
2017-Aug-16 04:00N 38°18' E 014°36'611.3
2017-Aug-16 03:30N 38°18' E 014°29'611.4
2017-Aug-16 02:59N 38°18' E 014°21'611.4
2017-Aug-16 02:28N 38°18' E 014°14'511.4
2017-Aug-16 02:00N 38°18' E 014°07'511.2
2017-Aug-16 01:30N 38°18' E 013°60'611.3
2017-Aug-16 01:00N 38°18' E 013°53'611.3
2017-Aug-16 00:30N 38°18' E 013°46'611.3
2017-Aug-16 00:00N 38°18' E 013°38'611.5
2017-Aug-15 23:30N 38°18' E 013°31'611.2
2017-Aug-15 23:00N 38°18' E 013°24'510.8
2017-Aug-15 22:30N 38°18' E 013°17'510.7
2017-Aug-15 22:00N 38°17' E 013°10'510.5
2017-Aug-15 21:30N 38°17' E 013°04'510.4
2017-Aug-15 21:00N 38°16' E 012°57'510.3
2017-Aug-15 20:30N 38°16' E 012°50'9510.4
2017-Aug-15 11:27N 38°13' E 010°50'511.2
2017-Aug-15 11:00N 38°12' E 010°44'1511.1
2017-Aug-15 09:40N 38°12' E 010°25'211.3
2017-Aug-15 09:30N 38°12' E 010°22'611.4
2017-Aug-15 09:00N 38°12' E 010°15'611.3
2017-Aug-15 08:30N 38°12' E 010°08'911.3
2017-Aug-15 07:40N 38°11' E 009°56'211.2
2017-Aug-15 07:30N 38°11' E 009°54'611.1
2017-Aug-15 07:00N 38°11' E 009°47'611.0
2017-Aug-15 06:30N 38°10' E 009°40'510.9
2017-Aug-15 06:00N 38°10' E 009°33'610.8
2017-Aug-15 05:28N 38°10' E 009°25'510.8
2017-Aug-15 04:59N 38°10' E 009°19'4710.7
2017-Aug-15 00:37N 38°08' E 008°20'210.3
2017-Aug-15 00:23N 38°08' E 008°17'2610.1
2017-Aug-14 21:46N 38°05' E 007°43'4 9.9
2017-Aug-14 21:23N 38°04' E 007°38'7 9.9
2017-Aug-14 20:40N 38°03' E 007°30'210.0
2017-Aug-14 20:30N 38°03' E 007°28'5 9.9
2017-Aug-14 19:58N 38°02' E 007°21'20 9.9
2017-Aug-14 17:54N 37°58' E 006°55'5910.4
2017-Aug-14 12:14N 37°48' E 005°42'210.5
2017-Aug-14 12:00N 37°48' E 005°39'1610.4
2017-Aug-14 10:25N 37°45' E 005°18'510.3
2017-Aug-14 09:55N 37°44' E 005°12'410.2
2017-Aug-14 09:30N 37°44' E 005°06'610.4
2017-Aug-14 08:54N 37°43' E 004°59'710.3
2017-Aug-14 08:14N 37°41' E 004°50'510.3
2017-Aug-14 07:44N 37°40' E 004°44'610.4
2017-Aug-14 07:10N 37°39' E 004°36'  

Dump ship's entire track history